createdAt,value
2022-09-20T00:01:10.556Z,8.58
2022-09-20T00:03:39.760Z,8.59
2022-09-20T00:06:08.182Z,8.62
2022-09-20T00:08:35.447Z,8.54
2022-09-20T00:11:07.172Z,8.53
2022-09-20T00:13:35.584Z,8.51
2022-09-20T00:16:06.678Z,8.53
2022-09-20T00:18:33.469Z,8.50
2022-09-20T00:21:00.175Z,8.56
2022-09-20T00:23:26.775Z,8.54
2022-09-20T00:25:58.289Z,8.53
2022-09-20T00:28:25.384Z,8.50
2022-09-20T00:30:53.209Z,8.49
2022-09-20T00:33:20.626Z,8.51
2022-09-20T00:35:47.265Z,8.50
2022-09-20T00:38:15.159Z,8.53
2022-09-20T00:40:43.859Z,8.51
2022-09-20T00:43:18.424Z,8.53
2022-09-20T00:45:48.885Z,8.55
2022-09-20T00:48:18.469Z,8.56
2022-09-20T00:50:51.475Z,8.54
2022-09-20T00:53:24.684Z,8.56
2022-09-20T00:55:58.100Z,8.60
2022-09-20T00:58:27.579Z,8.65
2022-09-20T01:00:55.275Z,8.65
2022-09-20T01:03:25.280Z,8.64
2022-09-20T01:05:54.645Z,8.69
2022-09-20T01:08:24.598Z,8.70
2022-09-20T01:10:52.259Z,8.71
2022-09-20T01:13:18.852Z,8.73
2022-09-20T01:15:47.708Z,8.74
2022-09-20T01:18:16.622Z,8.75
2022-09-20T01:20:45.857Z,8.77
2022-09-20T01:23:27.646Z,8.77
2022-09-20T01:26:13.226Z,8.80
2022-09-20T01:28:42.276Z,8.83
2022-09-20T01:31:17.022Z,8.82
2022-09-20T01:33:54.237Z,8.83
2022-09-20T01:36:26.756Z,8.85
2022-09-20T01:39:14.596Z,8.82
2022-09-20T01:42:08.990Z,8.79
2022-09-20T01:44:57.479Z,8.80
2022-09-20T01:48:01.748Z,8.79
2022-09-20T01:51:06.834Z,8.79
2022-09-20T01:53:49.110Z,8.84
2022-09-20T01:56:33.697Z,8.81
2022-09-20T01:59:31.561Z,8.78
2022-09-20T02:02:01.659Z,8.83
2022-09-20T02:04:49.965Z,8.90
2022-09-20T02:07:34.839Z,8.86
2022-09-20T02:10:04.289Z,8.82
2022-09-20T02:12:53.125Z,8.83
2022-09-20T02:15:57.030Z,8.82
2022-09-20T02:18:57.856Z,8.84
2022-09-20T02:21:36.640Z,8.82
2022-09-20T02:24:18.150Z,8.82
2022-09-20T02:27:06.513Z,8.80
2022-09-20T02:29:48.671Z,8.76
2022-09-20T02:32:24.980Z,8.76
2022-09-20T02:35:05.546Z,8.80
2022-09-20T02:38:11.532Z,8.80
2022-09-20T02:41:05.723Z,8.81
2022-09-20T02:43:41.406Z,8.81
2022-09-20T02:46:24.311Z,8.81
2022-09-20T02:49:17.203Z,8.82
2022-09-20T02:51:54.809Z,8.83
2022-09-20T02:54:42.484Z,8.83
2022-09-20T02:58:02.378Z,8.82
2022-09-20T03:00:44.703Z,8.78
2022-09-20T03:03:20.360Z,8.79
2022-09-20T03:06:14.773Z,8.80
2022-09-20T03:09:11.309Z,8.73
2022-09-20T03:11:44.259Z,8.72
2022-09-20T03:14:18.987Z,8.72
2022-09-20T03:16:52.482Z,8.70
2022-09-20T03:19:33.461Z,8.70
2022-09-20T03:22:26.584Z,8.66
2022-09-20T03:25:14.735Z,8.55
2022-09-20T03:28:11.416Z,8.63
2022-09-20T03:30:58.919Z,8.58
2022-09-20T03:33:31.396Z,8.62
2022-09-20T03:36:01.250Z,8.67
2022-09-20T03:38:39.939Z,8.65
2022-09-20T03:41:18.652Z,8.67
2022-09-20T03:44:05.720Z,8.66
2022-09-20T03:46:35.016Z,8.66
2022-09-20T03:49:46.227Z,8.63
2022-09-20T03:52:26.899Z,8.63
2022-09-20T03:55:05.672Z,8.64
2022-09-20T03:57:39.595Z,8.63
2022-09-20T04:00:16.895Z,8.61
2022-09-20T04:03:03.726Z,8.65
2022-09-20T04:05:57.787Z,8.67
2022-09-20T04:08:48.739Z,8.63
2022-09-20T07:07:19.312Z,8.71
2022-09-20T07:09:46.022Z,8.81
2022-09-20T07:12:12.744Z,8.88
2022-09-20T07:14:40.067Z,9.02
2022-09-20T07:17:06.707Z,9.25
2022-09-20T07:19:33.986Z,9.45
2022-09-20T07:22:00.633Z,9.69
2022-09-20T07:24:27.258Z,9.80
2022-09-20T07:27:02.729Z,9.91
2022-09-20T07:29:29.753Z,10.01
2022-09-20T07:31:57.215Z,10.11
2022-09-20T07:34:24.057Z,10.09
2022-09-20T07:36:51.393Z,10.15
2022-09-20T07:39:18.503Z,10.37
2022-09-20T07:41:50.774Z,10.39
2022-09-20T07:44:21.538Z,10.10
2022-09-20T07:47:10.245Z,10.21
2022-09-20T07:49:37.510Z,10.44
2022-09-20T07:52:04.768Z,10.57
2022-09-20T07:54:31.574Z,10.65
2022-09-20T07:56:58.131Z,10.57
2022-09-20T07:59:26.006Z,10.57
2022-09-20T08:01:52.616Z,10.61
2022-09-20T08:04:19.171Z,10.63
2022-09-20T08:06:46.376Z,10.56
2022-09-20T08:09:13.820Z,10.60
2022-09-20T08:11:42.167Z,10.65
2022-09-20T08:14:13.315Z,10.55
2022-09-20T08:16:43.189Z,10.68
2022-09-20T08:19:15.518Z,10.80
2022-09-20T08:21:42.207Z,10.89
2022-09-20T08:24:08.746Z,10.93
2022-09-20T08:26:35.976Z,10.90
2022-09-20T08:29:05.326Z,10.73
2022-09-20T08:31:37.258Z,10.80
2022-09-20T08:34:06.692Z,10.80
2022-09-20T08:36:36.644Z,10.72
2022-09-20T08:42:13.541Z,10.65
2022-09-20T08:44:47.321Z,10.72
2022-09-20T08:47:43.075Z,10.63
2022-09-20T08:50:11.758Z,10.60
2022-09-20T08:52:42.096Z,10.78
2022-09-20T08:55:18.486Z,10.67
2022-09-20T08:57:49.432Z,10.83
2022-09-20T09:00:22.237Z,10.91
2022-09-20T09:02:54.282Z,11.03
2022-09-20T09:05:41.208Z,11.05
2022-09-20T09:08:16.715Z,11.12
2022-09-20T09:10:47.755Z,11.08
2022-09-20T09:13:39.723Z,11.04
2022-09-20T09:16:13.228Z,11.03
2022-09-20T09:18:43.402Z,11.09
2022-09-20T09:21:19.415Z,11.11
2022-09-20T09:24:00.229Z,11.23
2022-09-20T09:26:27.403Z,11.28
2022-09-20T09:29:24.021Z,11.11
2022-09-20T09:31:53.006Z,10.95
2022-09-20T09:34:27.725Z,11.14
2022-09-20T09:36:55.524Z,11.20
2022-09-20T09:39:29.686Z,11.05
2022-09-20T09:41:57.304Z,10.99
2022-09-20T09:44:33.951Z,11.01
2022-09-20T09:47:01.042Z,11.04
2022-09-20T09:49:36.470Z,11.05
2022-09-20T09:52:15.772Z,11.27
2022-09-20T09:54:51.469Z,11.45
2022-09-20T09:57:27.145Z,11.52
2022-09-20T10:00:18.410Z,11.62
2022-09-20T10:03:05.040Z,11.65
2022-09-20T10:05:48.918Z,11.71
2022-09-20T10:08:42.940Z,11.71
2022-09-20T10:11:44.636Z,11.69
2022-09-20T10:14:22.555Z,11.78
2022-09-20T10:17:10.074Z,11.71
2022-09-20T10:19:36.591Z,11.54
2022-09-20T10:23:00.312Z,11.62
2022-09-20T10:26:12.005Z,11.53
2022-09-20T10:29:08.562Z,11.45
2022-09-20T10:32:00.402Z,11.59
2022-09-20T10:34:43.019Z,11.63
2022-09-20T10:37:21.608Z,11.83
2022-09-20T10:40:07.894Z,11.90
2022-09-20T10:42:56.109Z,12.01
2022-09-20T10:45:59.123Z,11.77
2022-09-20T10:48:41.058Z,11.78
2022-09-20T10:51:19.445Z,11.83
2022-09-20T10:54:20.046Z,11.94
2022-09-20T10:56:56.310Z,12.12
2022-09-20T10:59:38.208Z,12.16
2022-09-20T11:02:26.048Z,12.19
2022-09-20T11:05:18.707Z,12.25
2022-09-20T11:08:16.356Z,12.18
2022-09-20T11:10:49.606Z,12.15
2022-09-20T11:13:19.473Z,12.08
2022-09-20T11:15:52.756Z,11.92
2022-09-20T11:18:25.340Z,11.90
2022-09-20T11:21:07.635Z,11.83
2022-09-20T11:23:46.496Z,11.72
2022-09-20T11:26:38.045Z,11.81
2022-09-20T11:29:32.531Z,11.80
2022-09-20T11:32:20.458Z,11.82
2022-09-20T11:35:03.135Z,12.00
2022-09-20T11:37:37.863Z,12.30
2022-09-20T11:40:22.632Z,12.51
2022-09-20T11:42:50.979Z,12.51
2022-09-20T11:45:18.004Z,12.79
2022-09-20T11:47:55.721Z,12.80
2022-09-20T11:50:47.323Z,12.87
2022-09-20T11:53:55.484Z,13.15
2022-09-20T11:56:32.220Z,13.22
2022-09-20T11:59:02.331Z,13.07
2022-09-20T12:01:30.148Z,12.79
2022-09-20T12:04:27.842Z,12.75
2022-09-20T12:06:47.838Z,12.77
2022-09-20T12:09:49.041Z,12.66
2022-09-20T12:12:30.793Z,12.53
2022-09-20T12:15:00.557Z,12.54
2022-09-20T12:18:08.880Z,12.60
2022-09-20T12:20:35.936Z,12.57
2022-09-20T12:23:39.718Z,12.42
2022-09-20T12:26:22.980Z,12.35
2022-09-20T12:28:54.940Z,12.16
2022-09-20T12:31:21.541Z,12.28
2022-09-20T12:34:12.232Z,12.49
2022-09-20T12:37:05.131Z,12.84
2022-09-20T12:39:38.042Z,12.48
2022-09-20T12:42:33.145Z,12.72
2022-09-20T12:45:17.682Z,13.45
2022-09-20T12:47:54.683Z,13.88
2022-09-20T12:50:41.391Z,14.27
2022-09-20T12:53:17.264Z,14.30
2022-09-20T12:55:56.332Z,14.55
2022-09-20T12:58:25.616Z,14.71
2022-09-20T13:01:01.186Z,14.89
2022-09-20T13:03:36.611Z,14.48
2022-09-20T13:06:06.669Z,14.73
2022-09-20T13:09:02.756Z,14.58
2022-09-20T13:11:43.805Z,14.58
2022-09-20T13:14:13.420Z,14.80
2022-09-20T13:16:42.796Z,14.77
2022-09-20T13:19:23.223Z,14.76
2022-09-20T13:21:56.232Z,14.43
2022-09-20T13:24:24.522Z,14.42
2022-09-20T13:26:54.266Z,14.08
2022-09-20T13:29:34.198Z,13.84
2022-09-20T13:32:26.383Z,13.93
2022-09-20T13:35:22.476Z,13.76
2022-09-20T13:37:56.171Z,13.91
2022-09-20T13:40:39.806Z,14.04
2022-09-20T13:43:28.356Z,13.87
2022-09-20T13:46:00.965Z,14.39
2022-09-20T13:48:29.451Z,14.45
2022-09-20T13:50:57.617Z,14.89
2022-09-20T13:53:42.758Z,14.83
2022-09-20T13:56:30.918Z,14.24
2022-09-20T13:59:00.984Z,14.91
2022-09-20T14:01:36.839Z,15.08
2022-09-20T14:04:16.079Z,14.79
2022-09-20T14:06:43.144Z,14.57
2022-09-20T14:09:24.016Z,14.00
2022-09-20T14:11:51.026Z,14.06
2022-09-20T14:14:22.194Z,14.35
2022-09-20T14:16:50.338Z,14.47
2022-09-20T14:19:20.253Z,14.56
2022-09-20T14:21:48.129Z,14.52
2022-09-20T14:24:14.658Z,14.64
2022-09-20T14:26:42.958Z,14.62
2022-09-20T14:29:29.614Z,14.47
2022-09-20T14:31:59.338Z,14.57
2022-09-20T14:34:26.228Z,14.63
2022-09-20T14:37:05.551Z,14.49
2022-09-20T14:39:33.479Z,15.00
2022-09-20T14:42:00.256Z,15.14
2022-09-20T14:44:33.021Z,15.43
2022-09-20T14:47:00.326Z,15.46
2022-09-20T14:49:26.854Z,15.36
2022-09-20T14:51:54.350Z,15.11
2022-09-20T14:54:29.913Z,15.00
2022-09-20T14:56:58.866Z,14.68
2022-09-20T14:59:27.936Z,14.63
2022-09-20T15:01:54.533Z,14.64
2022-09-20T15:04:22.919Z,14.57
2022-09-20T15:06:50.622Z,14.48
2022-09-20T15:09:19.551Z,14.58
2022-09-20T15:11:46.288Z,14.30
2022-09-20T15:14:12.842Z,14.12
2022-09-20T15:16:39.459Z,13.97
2022-09-20T15:19:08.083Z,13.92
2022-09-20T15:21:34.783Z,13.62
2022-09-20T15:24:01.622Z,13.51
2022-09-20T15:26:28.271Z,13.29
2022-09-20T15:28:54.902Z,13.33
2022-09-20T15:31:21.529Z,13.40
2022-09-20T15:33:48.215Z,13.34
2022-09-20T15:36:14.816Z,13.32
2022-09-20T15:38:41.403Z,13.13
2022-09-20T15:41:08.283Z,12.98
2022-09-20T15:43:34.926Z,12.97
2022-09-20T15:46:18.518Z,12.91
2022-09-20T15:48:45.305Z,12.88
2022-09-20T15:51:12.981Z,13.01
2022-09-20T15:53:43.617Z,13.05
2022-09-20T15:56:21.088Z,13.06
2022-09-20T15:59:00.859Z,13.05
2022-09-20T16:01:29.364Z,13.01
2022-09-20T16:03:56.443Z,13.03
2022-09-20T16:06:24.129Z,13.01
2022-09-20T16:08:51.752Z,12.92
2022-09-20T16:11:22.864Z,12.87
2022-09-20T16:13:54.786Z,12.75
2022-09-20T16:16:21.602Z,12.53
2022-09-20T16:19:07.189Z,12.44
2022-09-20T16:21:34.546Z,12.35
2022-09-20T16:24:01.561Z,12.35
2022-09-20T16:26:29.185Z,12.29
2022-09-20T16:28:56.318Z,12.26
2022-09-20T16:31:32.834Z,12.22
2022-09-20T16:34:00.387Z,12.12
2022-09-20T16:36:27.690Z,11.94
2022-09-20T16:38:58.515Z,11.93
2022-09-20T16:41:27.056Z,11.74
2022-09-20T16:43:53.829Z,11.68
2022-09-20T16:46:27.201Z,11.49
2022-09-20T16:48:59.350Z,11.47
2022-09-20T16:51:31.942Z,11.42
2022-09-20T16:53:58.977Z,11.43
2022-09-20T16:56:28.845Z,11.40
2022-09-20T16:58:56.284Z,11.24
2022-09-20T17:01:23.286Z,11.25
2022-09-20T17:03:49.923Z,11.27
2022-09-20T17:06:16.833Z,11.23
2022-09-20T17:08:44.972Z,11.21
2022-09-20T17:11:15.109Z,11.20
2022-09-20T17:13:44.095Z,11.20
2022-09-20T17:16:15.121Z,11.12
2022-09-20T17:18:43.305Z,11.02
2022-09-20T17:21:15.433Z,10.93
2022-09-20T17:23:48.686Z,10.83
2022-09-20T17:26:20.397Z,10.74
2022-09-20T17:28:49.795Z,10.68
2022-09-20T17:31:19.653Z,10.60
2022-09-20T17:33:46.623Z,10.52
2022-09-20T17:36:17.753Z,10.44
2022-09-20T17:38:45.962Z,10.37
2022-09-20T17:41:15.323Z,10.25
2022-09-20T17:43:43.893Z,10.14
2022-09-20T17:46:14.433Z,10.10
2022-09-20T17:48:42.506Z,10.11
2022-09-20T17:51:12.658Z,10.05
2022-09-20T17:53:39.514Z,10.00
2022-09-20T17:56:06.134Z,9.90
2022-09-20T17:58:35.693Z,9.84
2022-09-20T18:01:03.183Z,9.68
2022-09-20T18:03:30.205Z,9.62
2022-09-20T18:05:56.807Z,9.56
2022-09-20T18:08:23.432Z,9.55
2022-09-20T18:10:58.541Z,9.47
2022-09-20T18:13:27.742Z,9.42
2022-09-20T18:15:54.755Z,9.43
2022-09-20T18:18:21.861Z,9.35
2022-09-20T18:20:49.098Z,9.26
2022-09-20T18:23:15.816Z,9.23
2022-09-20T18:26:00.931Z,9.18
2022-09-20T18:28:28.258Z,9.15
2022-09-20T18:31:05.317Z,9.12
2022-09-20T18:33:32.374Z,9.10
2022-09-20T18:36:03.689Z,9.08
2022-09-20T18:38:31.227Z,9.01
2022-09-20T18:41:00.376Z,9.00
2022-09-20T18:43:31.629Z,8.98
2022-09-20T18:45:58.969Z,9.02
2022-09-20T18:48:32.631Z,8.97
2022-09-20T18:51:04.393Z,8.92
2022-09-20T18:53:32.816Z,8.88
2022-09-20T18:56:18.149Z,8.80
2022-09-20T18:58:45.111Z,8.77
2022-09-20T19:01:20.019Z,8.77
2022-09-20T19:04:17.314Z,8.76
2022-09-20T19:07:08.476Z,8.74
2022-09-20T19:10:03.255Z,8.70
2022-09-20T19:12:59.242Z,8.62
2022-09-20T19:15:57.929Z,8.59
2022-09-20T19:18:30.600Z,8.56
2022-09-20T19:21:22.480Z,8.57
2022-09-20T19:24:10.041Z,8.55
2022-09-20T19:26:38.666Z,8.50
2022-09-20T19:29:18.283Z,8.51
2022-09-20T19:31:46.806Z,8.45
2022-09-20T19:34:19.836Z,8.44
2022-09-20T19:36:58.612Z,8.48
2022-09-20T19:40:02.508Z,8.50
2022-09-20T19:42:56.589Z,8.52
2022-09-20T19:45:55.755Z,8.50
2022-09-20T19:48:39.107Z,8.46
2022-09-20T19:51:10.932Z,8.47
2022-09-20T19:53:38.279Z,8.47
2022-09-20T19:56:14.435Z,8.43
2022-09-20T19:58:43.352Z,8.37
2022-09-20T20:01:10.509Z,8.32
2022-09-20T20:03:37.513Z,8.26
2022-09-20T20:06:25.607Z,8.23
2022-09-20T20:09:07.669Z,8.17
2022-09-20T20:11:37.969Z,8.17
2022-09-20T20:14:15.072Z,8.13
2022-09-20T20:17:06.674Z,8.03
2022-09-20T20:19:51.264Z,7.97
2022-09-20T20:22:30.420Z,7.89
2022-09-20T20:24:57.538Z,7.89
2022-09-20T20:27:28.230Z,7.87
2022-09-20T20:29:55.695Z,7.84
2022-09-20T20:32:22.820Z,7.82
2022-09-20T20:34:49.760Z,7.81
2022-09-20T20:37:18.221Z,7.75
2022-09-20T20:39:44.859Z,7.66
2022-09-20T20:42:12.959Z,7.60
2022-09-20T20:44:40.096Z,7.51
2022-09-20T20:47:07.043Z,7.48
2022-09-20T20:49:33.905Z,7.35
2022-09-20T20:52:04.944Z,7.34
2022-09-20T20:54:32.506Z,7.38
2022-09-20T20:56:59.578Z,7.36
2022-09-20T20:59:26.560Z,7.36
2022-09-20T21:01:53.340Z,7.33
2022-09-20T21:04:20.096Z,7.28
2022-09-20T21:06:46.870Z,7.27
2022-09-20T21:09:13.623Z,7.24
2022-09-20T21:11:44.756Z,7.16
2022-09-20T21:14:12.845Z,7.13
2022-09-20T21:16:45.108Z,7.12
2022-09-20T21:19:15.130Z,7.05
2022-09-20T21:21:43.361Z,7.00
2022-09-20T21:24:13.172Z,6.95
2022-09-20T21:26:40.367Z,6.89
2022-09-20T21:29:11.185Z,6.88
2022-09-20T21:31:40.326Z,6.81
2022-09-20T21:34:08.546Z,6.79
2022-09-20T21:36:36.808Z,6.75
2022-09-20T21:39:04.926Z,6.73
2022-09-20T21:41:34.104Z,6.70
2022-09-20T21:44:04.890Z,6.73
2022-09-20T21:46:35.888Z,6.71
2022-09-20T21:49:05.251Z,6.60
2022-09-20T21:51:33.143Z,6.55
2022-09-20T21:54:01.759Z,6.50
2022-09-20T21:56:31.419Z,6.47
2022-09-20T21:58:58.490Z,6.43
2022-09-20T22:01:26.860Z,6.44
2022-09-20T22:04:01.439Z,6.47
2022-09-20T22:06:35.824Z,6.46
2022-09-20T22:09:08.503Z,6.45
2022-09-20T22:11:39.181Z,6.47
2022-09-20T22:14:07.051Z,6.46
2022-09-20T22:16:36.854Z,6.42
2022-09-20T22:19:04.881Z,6.43
2022-09-20T22:21:37.181Z,6.40
2022-09-20T22:24:06.981Z,6.38
2022-09-20T22:26:36.474Z,6.37
2022-09-20T22:29:03.990Z,6.32
2022-09-20T22:31:32.385Z,6.30
2022-09-20T22:34:04.977Z,6.32
2022-09-20T22:36:34.339Z,6.30
2022-09-20T22:39:01.363Z,6.31
2022-09-20T22:41:28.311Z,6.26
2022-09-20T22:43:55.268Z,6.24
2022-09-20T22:46:23.834Z,6.23
2022-09-20T22:48:50.905Z,6.23
2022-09-20T22:51:26.043Z,6.25
2022-09-20T22:53:52.814Z,6.27
2022-09-20T22:56:25.372Z,6.21
2022-09-20T22:58:53.942Z,6.23
2022-09-20T23:01:26.447Z,6.23
2022-09-20T23:03:56.129Z,6.25
2022-09-20T23:06:29.448Z,6.30
2022-09-20T23:08:58.612Z,6.33
2022-09-20T23:11:26.125Z,6.33
2022-09-20T23:13:58.209Z,6.33
2022-09-20T23:16:30.411Z,6.38
2022-09-20T23:18:58.644Z,6.41
2022-09-20T23:21:26.110Z,6.42
2022-09-20T23:23:57.427Z,6.42
2022-09-20T23:26:25.631Z,6.43
2022-09-20T23:29:04.714Z,6.40
2022-09-20T23:31:34.641Z,6.42
2022-09-20T23:34:03.580Z,6.40
2022-09-20T23:36:32.499Z,6.39
2022-09-20T23:38:59.842Z,6.37
2022-09-20T23:41:27.739Z,6.38
2022-09-20T23:43:54.805Z,6.39
2022-09-20T23:46:23.173Z,6.40
2022-09-20T23:48:52.624Z,6.45
2022-09-20T23:51:20.724Z,6.39
2022-09-20T23:53:47.460Z,6.41
2022-09-20T23:56:15.145Z,6.42
2022-09-20T23:58:44.021Z,6.46
